Terminal Aerodrome Forecast
Issued by NWS Northern Indiana

Home | Current Version | Previous Version | Text Only | Print | Product List | Glossary On
Versions: 1 2 3 4 5 6 7 8 9 10 11 12 13 14 15 16 17 18 19 20 21 22 23 24 25 26 27
000
FTUS43 KIWX 231700
TAFFWA
TAF
KFWA 231739Z 2318/2418 10005KT P6SM BKN018 OVC028
      TEMPO 2318/2319 SCT018 BKN028
     FM231900 10006KT P6SM BKN035
     FM240900 08007KT 3SM BR SCT010
      TEMPO 2409/2413 2SM BR BKN010
     FM241300 10006KT P6SM SCT040=

USA.gov is the U.S. government's official web portal to all federal, state and local government web resources and services.